createdAt,value
2017-12-12T00:00:04.223Z,980.36
2017-12-12T00:00:44.765Z,980.39
2017-12-12T00:01:25.248Z,980.47
2017-12-12T00:02:05.765Z,980.51
2017-12-12T00:02:46.273Z,980.58
2017-12-12T00:03:26.799Z,980.69
2017-12-12T00:04:07.448Z,980.73
2017-12-12T00:04:47.958Z,980.73
2017-12-12T00:05:28.475Z,980.92
2017-12-12T00:06:09.000Z,980.84
2017-12-12T00:06:49.522Z,980.9
2017-12-12T00:07:30.053Z,980.97
2017-12-12T00:08:10.553Z,980.91
2017-12-12T00:08:51.073Z,980.98
2017-12-12T00:09:31.610Z,981.01
2017-12-12T00:10:12.145Z,981.02
2017-12-12T00:10:52.624Z,981.08
2017-12-12T00:11:33.159Z,981.02
2017-12-12T00:12:13.678Z,981.13
2017-12-12T00:12:54.174Z,981.15
2017-12-12T00:13:34.711Z,981.22
2017-12-12T00:14:15.207Z,981.18
2017-12-12T00:14:55.714Z,981.27
2017-12-12T00:15:36.217Z,981.32
2017-12-12T00:16:16.754Z,981.26
2017-12-12T00:16:57.243Z,981.38
2017-12-12T00:17:37.767Z,981.33
2017-12-12T00:18:18.302Z,981.25
2017-12-12T00:18:58.798Z,981.35
2017-12-12T00:19:39.406Z,981.42
2017-12-12T00:20:19.928Z,981.37
2017-12-12T00:21:00.429Z,981.39
2017-12-12T00:21:40.941Z,981.4
2017-12-12T00:22:21.446Z,981.52
2017-12-12T00:23:02.009Z,981.55
2017-12-12T00:23:42.468Z,981.59
2017-12-12T00:24:22.989Z,981.62
2017-12-12T00:25:03.482Z,981.6
2017-12-12T00:25:43.987Z,981.74
2017-12-12T00:26:24.484Z,981.71
2017-12-12T00:27:04.981Z,981.73
2017-12-12T00:27:45.489Z,981.8
2017-12-12T00:28:25.994Z,981.8
2017-12-12T00:29:06.491Z,981.9
2017-12-12T00:29:47.004Z,981.95
2017-12-12T00:30:27.529Z,981.94
2017-12-12T00:31:08.041Z,982
2017-12-12T00:31:48.566Z,982.01
2017-12-12T00:32:29.060Z,982.03
2017-12-12T00:33:09.593Z,982.1
2017-12-12T00:33:50.115Z,982.08
2017-12-12T00:34:30.629Z,982.12
2017-12-12T00:35:11.163Z,982.19
2017-12-12T00:35:51.676Z,982.29
2017-12-12T00:36:32.206Z,982.24
2017-12-12T00:37:12.713Z,982.32
2017-12-12T00:37:53.207Z,982.37
2017-12-12T00:38:33.713Z,982.28
2017-12-12T00:39:14.239Z,982.43
2017-12-12T00:39:54.738Z,982.37
2017-12-12T00:40:35.253Z,982.37
2017-12-12T00:41:15.755Z,982.42
2017-12-12T00:41:56.251Z,982.45
2017-12-12T00:42:36.768Z,982.46
2017-12-12T00:43:17.262Z,982.52
2017-12-12T00:43:57.810Z,982.54
2017-12-12T00:44:38.313Z,982.49
2017-12-12T00:45:18.822Z,982.6
2017-12-12T00:45:59.319Z,982.66
2017-12-12T00:46:39.809Z,982.69
2017-12-12T00:47:20.327Z,982.68
2017-12-12T00:48:00.850Z,982.74
2017-12-12T00:48:41.356Z,982.9
2017-12-12T00:49:21.899Z,982.83
2017-12-12T00:50:02.395Z,982.83
2017-12-12T00:50:42.897Z,982.87
2017-12-12T00:51:23.423Z,982.9
2017-12-12T00:52:03.927Z,982.89
2017-12-12T00:52:44.462Z,982.95
2017-12-12T00:53:24.967Z,982.95
2017-12-12T00:54:05.474Z,982.96
2017-12-12T00:54:46.007Z,983.01
2017-12-12T00:55:26.568Z,982.99
2017-12-12T00:56:07.045Z,983.04
2017-12-12T00:56:47.551Z,983.02
2017-12-12T00:57:28.037Z,983.12
2017-12-12T00:58:08.533Z,983.16
2017-12-12T00:58:49.075Z,983.2
2017-12-12T00:59:29.572Z,983.26
2017-12-12T01:00:10.100Z,983.25
2017-12-12T01:00:50.570Z,983.25
2017-12-12T01:01:31.093Z,983.31
2017-12-12T01:02:11.614Z,983.35
2017-12-12T01:02:52.159Z,983.41
2017-12-12T01:03:32.640Z,983.46
2017-12-12T01:04:13.156Z,983.45
2017-12-12T01:04:53.696Z,983.47
2017-12-12T01:05:34.200Z,983.53
2017-12-12T01:06:14.707Z,983.55
2017-12-12T01:06:55.208Z,983.63
2017-12-12T01:07:35.702Z,983.65
2017-12-12T01:08:16.225Z,983.65
2017-12-12T01:08:56.739Z,983.69
2017-12-12T01:09:37.239Z,983.71
2017-12-12T01:10:17.750Z,983.75
2017-12-12T01:10:58.255Z,983.83
2017-12-12T01:11:38.797Z,983.84
2017-12-12T01:12:19.352Z,983.82
2017-12-12T01:12:59.841Z,984
2017-12-12T01:13:40.331Z,983.86
2017-12-12T01:14:20.857Z,983.9
2017-12-12T01:15:01.373Z,984
2017-12-12T01:15:41.883Z,984.16
2017-12-12T01:16:22.373Z,984.12
2017-12-12T01:17:02.878Z,984.1
2017-12-12T01:17:43.423Z,984.15
2017-12-12T01:18:23.945Z,984.15
2017-12-12T01:19:04.413Z,984.2
2017-12-12T01:19:44.939Z,984.25
2017-12-12T01:20:25.412Z,984.35
2017-12-12T01:21:05.913Z,984.32
2017-12-12T01:21:46.423Z,984.26
2017-12-12T01:22:26.966Z,984.3
2017-12-12T01:23:07.443Z,984.39
2017-12-12T01:23:47.944Z,984.36
2017-12-12T01:24:28.470Z,984.4
2017-12-12T01:25:08.970Z,984.54
2017-12-12T01:25:49.494Z,984.46
2017-12-12T01:26:29.995Z,984.47
2017-12-12T01:27:10.515Z,984.47
2017-12-12T01:27:51.011Z,984.45
2017-12-12T01:28:31.525Z,984.49
2017-12-12T01:29:12.051Z,984.54
2017-12-12T01:29:52.557Z,984.53
2017-12-12T01:30:33.053Z,984.54
2017-12-12T01:31:13.550Z,984.48
2017-12-12T01:31:54.032Z,984.57
2017-12-12T01:32:34.564Z,984.54
2017-12-12T01:33:15.073Z,984.56
2017-12-12T01:33:55.585Z,984.49
2017-12-12T01:34:36.092Z,984.55
2017-12-12T01:35:16.636Z,984.5
2017-12-12T01:35:57.139Z,984.51
2017-12-12T01:36:37.662Z,984.56
2017-12-12T01:37:18.182Z,984.58
2017-12-12T01:37:58.647Z,984.64
2017-12-12T01:38:39.170Z,984.62
2017-12-12T01:39:19.671Z,984.7
2017-12-12T01:40:00.226Z,984.74
2017-12-12T01:40:40.693Z,984.79
2017-12-12T01:41:21.191Z,984.83
2017-12-12T01:42:01.680Z,984.83
2017-12-12T01:42:42.201Z,984.85
2017-12-12T01:43:22.726Z,984.95
2017-12-12T01:44:10.234Z,985.02
2017-12-12T01:44:50.808Z,985.02
2017-12-12T01:45:31.370Z,985.08
2017-12-12T01:46:11.886Z,985.12
2017-12-12T01:46:52.419Z,985.14
2017-12-12T01:47:32.921Z,985.2
2017-12-12T01:48:13.427Z,985.15
2017-12-12T01:48:53.932Z,985.21
2017-12-12T01:49:34.434Z,985.28
2017-12-12T01:50:14.942Z,985.26
2017-12-12T01:50:55.429Z,985.29
2017-12-12T01:51:35.940Z,985.32
2017-12-12T01:52:19.228Z,985.32
2017-12-12T01:52:59.758Z,985.37
2017-12-12T01:53:40.225Z,985.39
2017-12-12T01:54:20.748Z,985.39
2017-12-12T01:55:01.261Z,985.45
2017-12-12T01:55:41.758Z,985.41
2017-12-12T01:56:22.291Z,985.38
2017-12-12T01:57:02.830Z,985.46
2017-12-12T01:57:43.298Z,985.48
2017-12-12T01:58:23.810Z,985.48
2017-12-12T01:59:11.175Z,985.56
2017-12-12T01:59:51.654Z,985.59
2017-12-12T02:00:32.162Z,985.58
2017-12-12T02:01:12.752Z,985.63
2017-12-12T02:01:53.259Z,985.69
2017-12-12T02:02:33.798Z,985.63
2017-12-12T02:03:14.363Z,985.68
2017-12-12T02:03:55.459Z,985.72
2017-12-12T02:04:35.979Z,985.72
2017-12-12T02:05:16.506Z,985.81
2017-12-12T02:05:57.020Z,985.8
2017-12-12T02:06:37.526Z,985.85
2017-12-12T02:07:18.070Z,985.87
2017-12-12T02:07:58.539Z,985.92
2017-12-12T02:08:39.049Z,985.94
2017-12-12T02:09:19.585Z,986.03
2017-12-12T02:10:00.088Z,986.08
2017-12-12T02:10:40.642Z,986
2017-12-12T02:11:21.115Z,986.06
2017-12-12T02:12:01.627Z,986.13
2017-12-12T02:12:42.144Z,986.15
2017-12-12T02:13:22.651Z,986.22
2017-12-12T02:14:03.167Z,986.28
2017-12-12T02:14:43.671Z,986.25
2017-12-12T02:15:24.198Z,986.31
2017-12-12T02:16:04.710Z,986.32
2017-12-12T02:16:45.219Z,986.39
2017-12-12T02:17:25.733Z,986.3
2017-12-12T02:18:06.261Z,986.43
2017-12-12T02:18:46.761Z,986.44
2017-12-12T02:19:27.318Z,986.47
2017-12-12T02:20:07.818Z,986.47
2017-12-12T02:20:48.310Z,986.5
2017-12-12T02:21:28.809Z,986.63
2017-12-12T02:22:09.325Z,986.57
2017-12-12T02:22:49.829Z,986.6
2017-12-12T02:23:30.335Z,986.59
2017-12-12T02:24:10.878Z,986.62
2017-12-12T02:24:51.374Z,986.6
2017-12-12T02:25:31.890Z,986.65
2017-12-12T02:26:12.385Z,986.72
2017-12-12T02:26:52.930Z,986.8
2017-12-12T02:27:33.466Z,986.8
2017-12-12T02:28:13.962Z,986.88
2017-12-12T02:28:54.513Z,986.86
2017-12-12T02:29:35.044Z,986.84
2017-12-12T02:30:15.585Z,986.83
2017-12-12T02:30:56.125Z,986.9
2017-12-12T02:31:36.613Z,986.86
2017-12-12T02:32:17.137Z,986.94
2017-12-12T02:32:57.657Z,986.94
2017-12-12T02:33:38.168Z,986.96
2017-12-12T02:34:18.669Z,987.01
2017-12-12T02:34:59.166Z,986.99
2017-12-12T02:35:39.688Z,987.06
2017-12-12T02:36:20.206Z,987.06
2017-12-12T02:37:00.704Z,987.07
2017-12-12T02:37:41.219Z,987.15
2017-12-12T02:38:21.740Z,987.13
2017-12-12T02:39:02.238Z,987.11
2017-12-12T02:39:42.773Z,987.17
2017-12-12T02:40:23.268Z,987.19
2017-12-12T02:41:03.805Z,987.17
2017-12-12T02:41:44.309Z,987.24
2017-12-12T02:42:24.827Z,987.22
2017-12-12T02:43:05.322Z,987.25
2017-12-12T02:43:45.862Z,987.37
2017-12-12T02:44:26.376Z,987.23
2017-12-12T02:45:06.912Z,987.29
2017-12-12T02:45:47.409Z,987.32
2017-12-12T02:46:27.896Z,987.31
2017-12-12T02:47:08.422Z,987.35
2017-12-12T02:47:48.955Z,987.41
2017-12-12T02:48:29.479Z,987.45
2017-12-12T02:49:10.018Z,987.45
2017-12-12T02:49:50.520Z,987.47
2017-12-12T02:50:31.042Z,987.57
2017-12-12T02:51:11.573Z,987.53
2017-12-12T02:51:52.063Z,987.59
2017-12-12T02:52:32.615Z,987.59
2017-12-12T02:53:13.126Z,987.61
2017-12-12T02:53:53.638Z,987.69
2017-12-12T02:54:34.238Z,987.69
2017-12-12T02:55:14.759Z,987.68
2017-12-12T02:55:55.270Z,987.72
2017-12-12T02:56:35.764Z,987.77
2017-12-12T02:57:16.354Z,987.73
2017-12-12T02:57:56.845Z,987.79
2017-12-12T02:58:37.408Z,987.76
2017-12-12T02:59:17.929Z,987.77
2017-12-12T02:59:58.442Z,987.84
2017-12-12T03:00:38.945Z,987.81
2017-12-12T03:01:19.471Z,987.83
2017-12-12T03:01:59.980Z,987.78
2017-12-12T03:02:40.489Z,987.8
2017-12-12T03:03:21.021Z,987.9
2017-12-12T03:04:01.532Z,987.96
2017-12-12T03:04:42.061Z,987.91
2017-12-12T03:05:22.582Z,987.91
2017-12-12T03:06:03.086Z,987.92
2017-12-12T03:06:43.593Z,987.96
2017-12-12T03:07:24.112Z,987.95
2017-12-12T03:08:04.673Z,987.94
2017-12-12T03:08:45.171Z,988.01
2017-12-12T03:09:25.703Z,987.98
2017-12-12T03:10:06.209Z,988
2017-12-12T03:10:46.722Z,988.16
2017-12-12T03:11:27.220Z,988.09
2017-12-12T03:12:07.742Z,988.18
2017-12-12T03:12:48.254Z,988.21
2017-12-12T03:13:28.789Z,988.23
2017-12-12T03:14:09.279Z,988.3
2017-12-12T03:14:49.792Z,988.34
2017-12-12T03:15:30.313Z,988.36
2017-12-12T03:16:10.826Z,988.33
2017-12-12T03:16:51.331Z,988.38
2017-12-12T03:17:31.863Z,988.52
2017-12-12T03:18:12.371Z,988.46
2017-12-12T03:18:52.882Z,988.49
2017-12-12T03:19:33.384Z,988.46
2017-12-12T03:20:13.899Z,988.54
2017-12-12T03:20:54.418Z,988.61
2017-12-12T03:21:34.919Z,988.65
2017-12-12T03:22:15.443Z,988.77
2017-12-12T03:22:55.939Z,988.71
2017-12-12T03:23:36.483Z,988.73
2017-12-12T03:24:16.971Z,988.7
2017-12-12T03:24:57.483Z,988.82
2017-12-12T03:25:38.051Z,988.76
2017-12-12T03:26:18.541Z,988.85
2017-12-12T03:26:59.051Z,988.86
2017-12-12T03:27:39.557Z,988.89
2017-12-12T03:28:20.048Z,988.96
2017-12-12T03:29:00.551Z,988.96
2017-12-12T03:29:41.060Z,988.98
2017-12-12T03:30:21.561Z,988.98
2017-12-12T03:31:02.070Z,989.08
2017-12-12T03:31:42.596Z,989.1
2017-12-12T03:32:23.100Z,989.05
2017-12-12T03:33:03.621Z,989.16
2017-12-12T03:33:44.137Z,989.15
2017-12-12T03:34:24.647Z,989.13
2017-12-12T03:35:05.192Z,989.27
2017-12-12T03:35:45.731Z,989.22
2017-12-12T03:36:26.185Z,989.33
2017-12-12T03:37:06.719Z,989.36
2017-12-12T03:37:47.241Z,989.36
2017-12-12T03:38:27.743Z,989.51
2017-12-12T03:39:08.261Z,989.42
2017-12-12T03:39:48.770Z,989.48
2017-12-12T03:40:29.296Z,989.52
2017-12-12T03:41:09.802Z,989.52
2017-12-12T03:41:50.310Z,989.56
2017-12-12T03:42:30.817Z,989.58
2017-12-12T03:43:11.337Z,989.58
2017-12-12T03:43:51.829Z,989.67
2017-12-12T03:44:32.357Z,989.68
2017-12-12T03:45:12.845Z,989.75
2017-12-12T03:45:53.369Z,989.76
2017-12-12T03:46:33.891Z,989.75
2017-12-12T03:47:14.367Z,989.8
2017-12-12T03:47:54.880Z,989.77
2017-12-12T03:48:35.371Z,989.79
2017-12-12T03:49:15.874Z,989.87
2017-12-12T03:49:56.398Z,989.86
2017-12-12T03:50:36.905Z,989.81
2017-12-12T03:51:17.413Z,989.95
2017-12-12T03:51:57.911Z,989.91
2017-12-12T03:52:38.410Z,989.92
2017-12-12T03:53:18.935Z,989.91
2017-12-12T03:53:59.480Z,989.89
2017-12-12T03:54:39.993Z,989.95
2017-12-12T03:55:20.503Z,990.06
2017-12-12T03:56:01.003Z,990.03
2017-12-12T03:56:41.522Z,990.12
2017-12-12T03:57:22.072Z,990.11
2017-12-12T03:58:02.574Z,990.12
2017-12-12T03:58:43.078Z,990.17
2017-12-12T03:59:23.569Z,990.28
2017-12-12T04:00:04.110Z,990.2
2017-12-12T04:00:44.643Z,990.2
2017-12-12T04:01:25.121Z,990.15
2017-12-12T04:02:05.629Z,990.23
2017-12-12T04:02:46.135Z,990.29
2017-12-12T04:03:26.658Z,990.31
2017-12-12T04:04:07.161Z,990.3
2017-12-12T04:04:47.686Z,990.34
2017-12-12T04:05:28.169Z,990.39
2017-12-12T04:06:08.670Z,990.42
2017-12-12T04:06:49.178Z,990.48
2017-12-12T04:07:29.662Z,990.5
2017-12-12T04:08:10.192Z,990.55
2017-12-12T04:08:50.715Z,990.55
2017-12-12T04:09:31.205Z,990.46
2017-12-12T04:10:11.719Z,990.53
2017-12-12T04:10:52.222Z,990.6
2017-12-12T04:11:32.714Z,990.59
2017-12-12T04:12:13.251Z,990.62
2017-12-12T04:12:53.727Z,990.71
2017-12-12T04:13:34.279Z,990.78
2017-12-12T04:14:14.766Z,990.79
2017-12-12T04:14:55.265Z,990.82
2017-12-12T04:15:35.783Z,990.89
2017-12-12T04:16:16.285Z,990.85
2017-12-12T04:16:56.756Z,990.87
2017-12-12T04:17:37.281Z,990.9
2017-12-12T04:18:17.760Z,990.95
2017-12-12T04:18:58.254Z,990.96
2017-12-12T04:19:38.779Z,990.96
2017-12-12T04:20:19.292Z,991.03
2017-12-12T04:20:59.762Z,991.12
2017-12-12T04:21:40.275Z,991.16
2017-12-12T04:22:20.869Z,991.14
2017-12-12T04:23:01.360Z,991.17
2017-12-12T04:23:41.870Z,991.2
2017-12-12T04:24:22.388Z,991.24
2017-12-12T04:25:02.899Z,991.26
2017-12-12T04:25:43.429Z,991.26
2017-12-12T04:26:23.900Z,991.28
2017-12-12T04:27:04.421Z,991.25
2017-12-12T04:27:44.955Z,991.29
2017-12-12T04:28:25.462Z,991.39
2017-12-12T04:29:06.043Z,991.39
2017-12-12T04:29:46.541Z,991.42
2017-12-12T04:30:27.014Z,991.43
2017-12-12T04:31:07.523Z,991.43
2017-12-12T04:31:48.009Z,991.46
2017-12-12T04:32:28.516Z,991.51
2017-12-12T04:33:09.012Z,991.51
2017-12-12T04:33:49.523Z,991.61
2017-12-12T04:34:30.028Z,991.57
2017-12-12T04:35:10.535Z,991.58
2017-12-12T04:35:51.018Z,991.62
2017-12-12T04:36:31.532Z,991.66
2017-12-12T04:37:12.046Z,991.72
2017-12-12T04:37:52.579Z,991.67
2017-12-12T04:38:33.053Z,991.73
2017-12-12T04:39:13.541Z,991.79
2017-12-12T04:39:54.044Z,991.73
2017-12-12T04:40:34.546Z,991.87
2017-12-12T04:41:15.035Z,991.85
2017-12-12T04:41:55.522Z,991.85
2017-12-12T04:42:36.005Z,991.98
2017-12-12T04:43:16.516Z,991.91
2017-12-12T04:43:57.030Z,992.02
2017-12-12T04:44:37.495Z,992.02
2017-12-12T04:45:17.998Z,991.99
2017-12-12T04:45:58.528Z,992.04
2017-12-12T04:46:39.037Z,992.07
2017-12-12T04:47:19.549Z,992.11
2017-12-12T04:48:00.062Z,992.09
2017-12-12T04:48:40.613Z,992.14
2017-12-12T04:49:21.060Z,992.2
2017-12-12T04:50:01.595Z,992.2
2017-12-12T04:50:42.110Z,992.26
2017-12-12T04:51:22.580Z,992.31
2017-12-12T04:52:03.086Z,992.27
2017-12-12T04:52:43.599Z,992.36
2017-12-12T04:53:24.098Z,992.38
2017-12-12T04:54:04.603Z,992.35
2017-12-12T04:54:45.092Z,992.42
2017-12-12T04:55:25.588Z,992.47
2017-12-12T04:56:06.098Z,992.47
2017-12-12T04:56:46.583Z,992.58
2017-12-12T04:57:27.081Z,992.56
2017-12-12T04:58:07.610Z,992.63
2017-12-12T04:58:48.169Z,992.6
2017-12-12T04:59:28.660Z,992.7
2017-12-12T05:00:09.152Z,992.72
2017-12-12T05:00:51.482Z,992.74
2017-12-12T05:01:32.019Z,992.72
2017-12-12T05:02:12.557Z,992.79
2017-12-12T05:02:53.066Z,992.8
2017-12-12T05:03:33.575Z,992.84
2017-12-12T05:04:14.061Z,992.84
2017-12-12T05:04:54.574Z,992.82
2017-12-12T05:05:35.089Z,992.78
2017-12-12T05:06:15.559Z,992.91
2017-12-12T05:06:56.115Z,992.97
2017-12-12T05:07:36.816Z,992.92
2017-12-12T05:08:17.303Z,992.99
2017-12-12T05:08:57.961Z,993.01
2017-12-12T05:09:41.368Z,993.09
2017-12-12T05:10:25.276Z,993.05
2017-12-12T05:11:05.839Z,993.04
2017-12-12T05:11:46.417Z,993.11
2017-12-12T05:12:27.010Z,993.11
2017-12-12T05:13:07.611Z,993.14
2017-12-12T05:13:48.029Z,993.18
2017-12-12T05:14:28.604Z,993.3
2017-12-12T05:15:09.206Z,993.38
2017-12-12T05:15:51.580Z,993.24
2017-12-12T05:16:32.311Z,993.37
2017-12-12T05:17:12.690Z,993.41
2017-12-12T05:17:53.252Z,993.42
2017-12-12T05:18:33.772Z,993.44
2017-12-12T05:19:14.286Z,993.52
2017-12-12T05:19:57.752Z,993.51
2017-12-12T05:20:38.151Z,993.57
2017-12-12T05:21:18.632Z,993.64
2017-12-12T05:21:59.150Z,993.63
2017-12-12T05:22:39.646Z,993.65
2017-12-12T05:23:20.171Z,993.66
2017-12-12T05:24:00.682Z,993.69
2017-12-12T05:24:41.198Z,993.69
2017-12-12T05:25:21.962Z,993.7
2017-12-12T05:26:02.489Z,993.72
2017-12-12T05:26:43.351Z,993.74
2017-12-12T05:27:23.626Z,993.8
2017-12-12T05:28:04.146Z,993.72
2017-12-12T05:28:44.643Z,993.7
2017-12-12T05:29:25.165Z,993.78
2017-12-12T05:30:05.753Z,993.81
2017-12-12T05:30:46.204Z,993.86
2017-12-12T05:31:26.707Z,993.86
2017-12-12T05:32:07.228Z,993.89
2017-12-12T05:32:47.736Z,993.82
2017-12-12T05:33:28.222Z,993.87
2017-12-12T05:34:11.463Z,993.88
2017-12-12T05:34:52.029Z,993.87
2017-12-12T05:35:32.603Z,993.89
2017-12-12T05:36:13.089Z,993.96
2017-12-12T05:36:53.602Z,993.93
2017-12-12T05:37:34.099Z,994
2017-12-12T05:38:14.633Z,994.02
2017-12-12T05:38:57.094Z,994.06
2017-12-12T05:39:37.592Z,994.09
2017-12-12T05:40:18.147Z,994.1
2017-12-12T05:40:58.705Z,994.13
2017-12-12T05:41:39.253Z,994.2
2017-12-12T05:42:19.780Z,994.23
2017-12-12T05:43:00.344Z,994.22
2017-12-12T05:43:40.879Z,994.31
2017-12-12T05:44:23.282Z,994.34
2017-12-12T05:45:03.804Z,994.32
2017-12-12T05:45:44.373Z,994.37
2017-12-12T05:46:24.918Z,994.35
2017-12-12T05:47:05.594Z,994.39
2017-12-12T05:47:46.181Z,994.39
2017-12-12T05:48:28.531Z,994.46
2017-12-12T05:49:09.100Z,994.4
2017-12-12T05:49:49.682Z,994.42
2017-12-12T05:50:30.169Z,994.49
2017-12-12T05:51:10.724Z,994.56
2017-12-12T05:51:51.262Z,994.62
2017-12-12T05:52:33.597Z,994.68
2017-12-12T05:53:16.050Z,994.7
2017-12-12T05:53:56.638Z,994.75
2017-12-12T05:54:37.184Z,994.77
2017-12-12T05:55:17.723Z,994.82
2017-12-12T05:55:58.596Z,994.81
2017-12-12T05:56:38.761Z,994.84
2017-12-12T05:57:19.403Z,994.89
2017-12-12T05:58:00.003Z,994.93
2017-12-12T05:58:40.520Z,994.86
2017-12-12T05:59:21.226Z,994.9
2017-12-12T06:00:02.059Z,995.01
2017-12-12T06:00:42.851Z,995.02
2017-12-12T06:01:25.330Z,995.07
2017-12-12T06:02:09.747Z,995.03
2017-12-12T06:02:56.887Z,995.09
2017-12-12T06:03:39.614Z,995.11
2017-12-12T06:04:23.852Z,995.18
2017-12-12T06:05:09.403Z,995.14
2017-12-12T06:05:52.840Z,995.21
2017-12-12T06:06:35.067Z,995.2
2017-12-12T06:07:18.548Z,995.24
2017-12-12T06:09:35.344Z,995.28
2017-12-12T06:10:16.078Z,995.26
2017-12-12T06:10:56.847Z,995.38
2017-12-12T06:11:37.291Z,995.37
2017-12-12T06:12:17.890Z,995.41
2017-12-12T06:12:58.485Z,995.46
2017-12-12T06:13:38.935Z,995.49
2017-12-12T06:14:19.425Z,995.45
2017-12-12T06:15:00.150Z,995.52
2017-12-12T06:15:40.820Z,995.51
2017-12-12T06:16:21.638Z,995.52
2017-12-12T06:17:02.775Z,995.54
2017-12-12T06:17:43.373Z,995.59
2017-12-12T06:18:25.816Z,995.59
2017-12-12T06:19:06.269Z,995.58
2017-12-12T06:19:46.870Z,995.59
2017-12-12T06:20:27.527Z,995.64
2017-12-12T06:21:08.051Z,995.7
2017-12-12T06:21:48.803Z,995.67
2017-12-12T06:22:29.041Z,995.69
2017-12-12T06:23:09.593Z,995.7
2017-12-12T06:23:50.149Z,995.72
2017-12-12T06:24:30.595Z,995.75
2017-12-12T06:25:11.186Z,995.72
2017-12-12T06:25:51.711Z,995.74
2017-12-12T06:26:32.259Z,995.74
2017-12-12T06:27:12.924Z,995.77
2017-12-12T06:27:53.381Z,995.78
2017-12-12T06:28:33.961Z,995.7
2017-12-12T06:29:14.485Z,995.79
2017-12-12T06:29:55.027Z,995.79
2017-12-12T06:30:35.687Z,995.75
2017-12-12T06:31:16.109Z,995.85
2017-12-12T06:31:56.713Z,995.84
2017-12-12T06:32:37.206Z,995.85
2017-12-12T06:33:17.812Z,995.81
2017-12-12T06:33:58.350Z,995.85
2017-12-12T06:34:38.877Z,995.87
2017-12-12T06:35:19.497Z,995.84
2017-12-12T06:36:00.514Z,995.89
2017-12-12T06:36:40.974Z,995.91
2017-12-12T06:37:21.642Z,995.91
2017-12-12T06:38:02.276Z,996.01
2017-12-12T06:38:42.796Z,996.02
2017-12-12T06:39:23.357Z,995.99
2017-12-12T06:40:04.405Z,995.99
2017-12-12T06:40:44.466Z,996.04
2017-12-12T06:41:24.990Z,996.02
2017-12-12T06:42:05.550Z,996.05
2017-12-12T06:42:46.064Z,996.05
2017-12-12T06:43:26.652Z,996.06
2017-12-12T06:44:07.190Z,996.09
2017-12-12T06:44:47.659Z,996.14
2017-12-12T06:45:28.265Z,996.15
2017-12-12T06:46:08.713Z,996.13
2017-12-12T06:46:49.233Z,996.14
2017-12-12T06:47:29.782Z,996.14
2017-12-12T06:48:10.346Z,996.14
2017-12-12T06:48:50.938Z,996.1
2017-12-12T06:49:31.556Z,996.13
2017-12-12T06:50:12.159Z,996.19
2017-12-12T06:50:52.702Z,996.32
2017-12-12T06:51:33.238Z,996.28
2017-12-12T06:52:13.761Z,996.21
2017-12-12T06:52:54.354Z,996.26
2017-12-12T06:53:34.847Z,996.23
2017-12-12T06:54:15.399Z,996.26
2017-12-12T06:54:55.950Z,996.29
2017-12-12T06:55:36.486Z,996.29
2017-12-12T06:56:16.926Z,996.33
2017-12-12T06:56:57.452Z,996.36
2017-12-12T06:57:37.977Z,996.35
2017-12-12T06:58:18.544Z,996.34
2017-12-12T06:58:59.050Z,996.35
2017-12-12T06:59:39.657Z,996.42
2017-12-12T07:00:20.185Z,996.45
2017-12-12T07:01:00.731Z,996.48
2017-12-12T07:01:41.313Z,996.5
2017-12-12T07:02:21.829Z,996.56
2017-12-12T07:03:02.365Z,996.58
2017-12-12T07:03:42.922Z,996.63
2017-12-12T07:04:23.445Z,996.62
2017-12-12T07:05:03.928Z,996.6
2017-12-12T07:05:44.533Z,996.63
2017-12-12T07:06:25.135Z,996.61
2017-12-12T07:07:05.788Z,996.66
2017-12-12T07:07:46.238Z,996.76
2017-12-12T07:08:26.784Z,996.76
2017-12-12T07:09:07.319Z,996.68
2017-12-12T07:09:47.827Z,996.81
2017-12-12T07:10:28.430Z,996.8
2017-12-12T07:11:08.996Z,996.85
2017-12-12T07:11:49.600Z,996.86
2017-12-12T07:12:30.102Z,996.89
2017-12-12T07:13:10.653Z,996.88
2017-12-12T07:13:51.363Z,996.88
2017-12-12T07:14:31.913Z,996.91
2017-12-12T07:15:12.711Z,996.9
2017-12-12T07:15:53.219Z,996.96
2017-12-12T07:16:33.812Z,996.96
2017-12-12T07:17:14.297Z,996.94
2017-12-12T07:17:54.934Z,997.01
2017-12-12T07:18:35.564Z,997.01
2017-12-12T07:19:16.161Z,997.06
2017-12-12T07:19:56.732Z,997.06
2017-12-12T07:20:37.218Z,997.07
2017-12-12T07:21:17.863Z,997.1
2017-12-12T07:21:58.327Z,997.17
2017-12-12T07:22:38.828Z,997.17
2017-12-12T07:23:19.430Z,997.19
2017-12-12T07:23:59.929Z,997.16
2017-12-12T07:24:40.560Z,997.2
2017-12-12T07:25:21.131Z,997.23
2017-12-12T07:26:01.705Z,997.22
2017-12-12T07:26:42.239Z,997.27
2017-12-12T07:27:22.861Z,997.24
2017-12-12T07:28:03.357Z,997.29
2017-12-12T07:28:44.007Z,997.3
2017-12-12T07:29:24.530Z,997.37
2017-12-12T07:30:05.050Z,997.32
2017-12-12T07:30:45.607Z,997.36
2017-12-12T07:31:26.093Z,997.42
2017-12-12T07:32:06.590Z,997.42
2017-12-12T07:32:47.137Z,997.46
2017-12-12T07:33:27.643Z,997.41
2017-12-12T07:34:08.252Z,997.46
2017-12-12T07:34:48.767Z,997.49
2017-12-12T07:35:29.306Z,997.47
2017-12-12T07:36:09.921Z,997.5
2017-12-12T07:36:50.485Z,997.49
2017-12-12T07:37:30.979Z,997.54
2017-12-12T07:38:11.514Z,997.54
2017-12-12T07:38:52.122Z,997.54
2017-12-12T07:39:32.808Z,997.59
2017-12-12T07:40:13.396Z,997.56
2017-12-12T07:40:53.878Z,997.61
2017-12-12T07:41:34.386Z,997.65
2017-12-12T07:42:14.977Z,997.63
2017-12-12T07:42:55.598Z,997.66
2017-12-12T07:43:36.144Z,997.73
2017-12-12T07:44:16.725Z,997.68
2017-12-12T07:44:57.174Z,997.71
2017-12-12T07:45:37.836Z,997.76
2017-12-12T07:46:18.300Z,997.73
2017-12-12T07:46:58.826Z,997.74
2017-12-12T07:47:39.362Z,997.74
2017-12-12T07:48:20.037Z,997.75
2017-12-12T07:49:00.633Z,997.78
2017-12-12T07:49:41.096Z,997.82
2017-12-12T07:50:21.630Z,997.83
2017-12-12T07:51:02.214Z,997.87
2017-12-12T07:51:42.725Z,997.88
2017-12-12T07:52:23.361Z,997.88
2017-12-12T07:53:03.912Z,997.92
2017-12-12T07:53:44.474Z,997.98
2017-12-12T07:54:25.014Z,997.95
2017-12-12T07:55:05.579Z,998.02
2017-12-12T07:55:46.222Z,998.04
2017-12-12T07:56:26.894Z,998.11
2017-12-12T07:57:07.323Z,998.07
2017-12-12T07:57:47.947Z,998.11
2017-12-12T07:58:28.414Z,998.17
2017-12-12T07:59:08.999Z,998.16
2017-12-12T07:59:49.515Z,998.2
2017-12-12T08:00:30.060Z,998.22
2017-12-12T08:01:10.619Z,998.26
2017-12-12T08:01:51.145Z,998.24
2017-12-12T08:02:31.744Z,998.27
2017-12-12T08:03:12.274Z,998.32
2017-12-12T08:03:52.891Z,998.31
2017-12-12T08:04:33.396Z,998.33
2017-12-12T08:05:13.960Z,998.32
2017-12-12T08:05:54.631Z,998.33
2017-12-12T08:06:35.153Z,998.37
2017-12-12T08:07:15.669Z,998.38
2017-12-12T08:07:56.179Z,998.42
2017-12-12T08:08:36.736Z,998.4
2017-12-12T08:09:17.256Z,998.44
2017-12-12T08:09:57.836Z,998.48
2017-12-12T08:10:38.338Z,998.48
2017-12-12T08:11:18.846Z,998.48
2017-12-12T08:11:59.450Z,998.5
2017-12-12T08:12:40.025Z,998.55
2017-12-12T08:13:20.531Z,998.48
2017-12-12T08:14:01.010Z,998.5
2017-12-12T08:14:41.546Z,998.51
2017-12-12T08:15:22.104Z,998.48
2017-12-12T08:16:02.605Z,998.58
2017-12-12T08:16:43.191Z,998.56
2017-12-12T08:17:23.698Z,998.56
2017-12-12T08:18:04.226Z,998.56
2017-12-12T08:18:44.910Z,998.63
2017-12-12T08:19:25.440Z,998.57
2017-12-12T08:20:06.042Z,998.56
2017-12-12T08:20:46.617Z,998.57
2017-12-12T08:21:27.274Z,998.61
2017-12-12T08:22:07.680Z,998.62
2017-12-12T08:22:48.183Z,998.68
2017-12-12T08:23:28.742Z,998.65
2017-12-12T08:24:09.258Z,998.7
2017-12-12T08:24:49.787Z,998.67
2017-12-12T08:25:30.384Z,998.68
2017-12-12T08:26:10.898Z,998.73
2017-12-12T08:26:51.482Z,998.73
2017-12-12T08:27:32.139Z,998.72
2017-12-12T08:28:12.549Z,998.74
2017-12-12T08:28:53.228Z,998.75
2017-12-12T08:29:33.725Z,998.79
2017-12-12T08:30:14.246Z,998.81